createdAt,value
2017-07-02T05:53:47.532Z,4
2017-07-02T05:56:03.706Z,4
2017-07-02T05:57:11.797Z,4
2017-07-02T05:58:19.885Z,4
2017-07-02T05:59:27.972Z,4
2017-07-02T06:00:36.072Z,4
2017-07-02T06:01:44.151Z,4
2017-07-02T06:02:52.534Z,4
2017-07-02T06:04:00.329Z,4
2017-07-02T06:05:08.538Z,4
2017-07-02T06:06:16.504Z,4
2017-07-02T06:07:24.594Z,4
2017-07-02T06:08:32.682Z,4
2017-07-02T06:09:40.770Z,4
2017-07-02T06:10:48.857Z,4
2017-07-02T06:11:56.970Z,4
2017-07-02T06:13:05.034Z,4
2017-07-02T06:14:13.225Z,4
2017-07-02T06:15:21.355Z,4
2017-07-02T06:16:29.294Z,4
2017-07-02T06:17:37.381Z,4
2017-07-02T06:18:45.469Z,4
2017-07-02T06:19:53.596Z,4
2017-07-02T06:21:02.251Z,4
2017-07-02T06:22:09.731Z,4
2017-07-02T06:23:17.814Z,8
2017-07-02T06:24:26.125Z,4
2017-07-02T06:25:33.992Z,4
2017-07-02T06:26:42.080Z,8
2017-07-02T06:27:50.168Z,8
2017-07-02T06:28:58.255Z,4
2017-07-02T06:30:06.344Z,8
2017-07-02T06:31:14.428Z,4
2017-07-02T06:32:22.589Z,8
2017-07-02T06:33:30.607Z,8
2017-07-02T06:34:38.693Z,8
2017-07-02T06:35:46.781Z,8
2017-07-02T06:36:54.867Z,8
2017-07-02T06:38:02.955Z,8
2017-07-02T06:39:11.046Z,8
2017-07-02T06:40:19.132Z,8
2017-07-02T06:41:27.273Z,4
2017-07-02T06:42:35.583Z,8
2017-07-02T06:43:43.395Z,8
2017-07-02T06:44:51.480Z,12
2017-07-02T06:45:59.954Z,8
2017-07-02T06:47:07.655Z,8
2017-07-02T06:48:16.214Z,8
2017-07-02T06:49:23.832Z,8
2017-07-02T06:50:31.920Z,8
2017-07-02T06:51:40.005Z,12
2017-07-02T06:52:48.101Z,12
2017-07-02T06:53:56.190Z,8
2017-07-02T06:55:04.368Z,12
2017-07-02T06:56:12.354Z,12
2017-07-02T06:57:21.079Z,8
2017-07-02T06:58:28.529Z,8
2017-07-02T06:59:36.706Z,12
2017-07-02T07:00:47.919Z,12
2017-07-02T07:01:53.310Z,12
2017-07-02T07:03:00.879Z,12
2017-07-02T07:04:09.573Z,12
2017-07-02T07:05:17.235Z,12
2017-07-02T07:06:25.312Z,12
2017-07-02T07:07:33.781Z,12
2017-07-02T07:08:41.819Z,8
2017-07-02T07:09:49.400Z,12
2017-07-02T07:10:57.489Z,12
2017-07-02T07:12:05.577Z,16
2017-07-02T07:13:13.721Z,12
2017-07-02T07:14:22.360Z,12
2017-07-02T07:15:30.204Z,12
2017-07-02T07:16:38.407Z,12
2017-07-02T07:17:46.648Z,12
2017-07-02T07:18:54.104Z,12
2017-07-02T07:20:02.591Z,12
2017-07-02T07:21:10.325Z,8
2017-07-02T07:22:18.639Z,8
2017-07-02T07:23:26.473Z,8
2017-07-02T07:24:34.771Z,8
2017-07-02T07:25:43.117Z,8
2017-07-02T07:26:50.736Z,12
2017-07-02T07:27:59.097Z,8
2017-07-02T07:29:06.935Z,8
2017-07-02T07:30:14.995Z,8
2017-07-02T07:31:23.083Z,8
2017-07-02T07:32:31.171Z,8
2017-07-02T07:33:39.258Z,8
2017-07-02T07:34:47.345Z,12
2017-07-02T07:35:55.434Z,12
2017-07-02T07:37:03.519Z,12
2017-07-02T07:38:11.610Z,12
2017-07-02T07:39:19.696Z,12
2017-07-02T07:40:27.815Z,12
2017-07-02T07:41:35.870Z,12
2017-07-02T07:42:43.957Z,8
2017-07-02T07:43:52.047Z,8
2017-07-02T07:45:00.133Z,8
2017-07-02T07:46:08.220Z,8
2017-07-02T07:47:16.309Z,12
2017-07-02T07:48:24.394Z,8
2017-07-02T07:49:32.482Z,8
2017-07-02T07:50:40.576Z,8
2017-07-02T07:51:48.663Z,8
2017-07-02T07:52:56.760Z,12
2017-07-02T07:54:05.087Z,8
2017-07-02T07:55:12.926Z,12
2017-07-02T07:56:21.018Z,8
2017-07-02T07:57:29.351Z,8
2017-07-02T07:58:37.230Z,8
2017-07-02T07:59:45.276Z,8
2017-07-02T08:00:53.364Z,8
2017-07-02T08:02:01.454Z,8
2017-07-02T08:03:09.539Z,8
2017-07-02T08:04:17.628Z,4
2017-07-02T08:05:25.716Z,8
2017-07-02T08:06:33.803Z,8
2017-07-02T08:07:41.890Z,8
2017-07-02T08:08:49.977Z,8
2017-07-02T08:09:58.063Z,8
2017-07-02T08:11:06.152Z,8
2017-07-02T08:12:14.238Z,8
2017-07-02T08:13:22.328Z,8
2017-07-02T08:14:30.415Z,8
2017-07-02T08:15:38.503Z,8
2017-07-02T08:16:46.589Z,4
2017-07-02T08:17:54.675Z,4
2017-07-02T08:19:02.763Z,8
2017-07-02T08:20:10.849Z,8
2017-07-02T08:21:18.937Z,8
2017-07-02T08:22:27.024Z,8
2017-07-02T08:23:35.123Z,8
2017-07-02T08:24:43.224Z,12
2017-07-02T08:25:51.295Z,12
2017-07-02T08:26:59.378Z,8
2017-07-02T08:28:07.465Z,8
2017-07-02T08:29:15.550Z,8
2017-07-02T08:30:23.640Z,8
2017-07-02T08:31:31.727Z,8
2017-07-02T08:32:39.822Z,8
2017-07-02T08:33:47.945Z,8
2017-07-02T08:34:55.990Z,4
2017-07-02T08:36:04.077Z,4
2017-07-02T08:37:12.165Z,8
2017-07-02T08:38:20.252Z,4
2017-07-02T08:39:28.338Z,4
2017-07-02T08:40:36.428Z,8
2017-07-02T08:41:44.513Z,8
2017-07-02T08:42:52.602Z,8
2017-07-02T08:44:00.689Z,4
2017-07-02T08:45:08.778Z,8
2017-07-02T08:46:16.891Z,4
2017-07-02T08:47:24.954Z,4
2017-07-02T08:48:33.041Z,8
2017-07-02T08:49:41.127Z,4
2017-07-02T08:50:49.335Z,4
2017-07-02T08:51:57.308Z,4
2017-07-02T08:53:05.397Z,4
2017-07-02T08:54:13.482Z,4
2017-07-02T08:55:21.578Z,4
2017-07-02T08:56:29.662Z,4
2017-07-02T08:57:37.751Z,4
2017-07-02T08:58:45.896Z,4
2017-07-02T08:59:53.927Z,4
2017-07-02T09:01:02.014Z,4
2017-07-02T09:02:10.103Z,0
2017-07-02T09:03:18.189Z,4
2017-07-02T09:04:26.276Z,4
2017-07-02T09:05:34.362Z,4
2017-07-02T09:06:42.448Z,4
2017-07-02T09:07:50.536Z,4
2017-07-02T09:08:58.624Z,4
2017-07-02T09:10:06.769Z,4
2017-07-02T09:11:14.797Z,8
2017-07-02T09:12:22.888Z,4
2017-07-02T09:13:30.974Z,8
2017-07-02T09:14:39.067Z,4
2017-07-02T09:15:47.147Z,4
2017-07-02T09:16:55.235Z,8
2017-07-02T09:18:03.324Z,8
2017-07-02T09:19:11.412Z,8
2017-07-02T09:20:19.495Z,8
2017-07-02T09:21:27.586Z,8
2017-07-02T09:22:35.670Z,4
2017-07-02T09:23:43.761Z,4
2017-07-02T09:24:51.856Z,8
2017-07-02T09:25:59.933Z,8
2017-07-02T09:27:08.018Z,8
2017-07-02T09:28:16.109Z,8
2017-07-02T09:29:24.195Z,8
2017-07-02T09:30:32.281Z,8
2017-07-02T09:31:40.371Z,8
2017-07-02T09:32:48.460Z,8
2017-07-02T09:33:56.546Z,8
2017-07-02T09:35:04.633Z,8
2017-07-02T09:36:12.720Z,12
2017-07-02T09:37:20.807Z,12
2017-07-02T09:38:28.894Z,12
2017-07-02T09:39:36.982Z,12
2017-07-02T09:40:45.069Z,8
2017-07-02T09:41:53.154Z,16
2017-07-02T09:43:01.245Z,16
2017-07-02T09:44:09.355Z,16
2017-07-02T09:45:17.417Z,16
2017-07-02T09:46:25.505Z,16
2017-07-02T09:47:33.589Z,16
2017-07-02T09:48:41.677Z,16
2017-07-02T09:49:49.765Z,16
2017-07-02T09:50:57.908Z,16
2017-07-02T09:52:05.941Z,12
2017-07-02T09:53:14.029Z,12
2017-07-02T09:54:22.119Z,16
2017-07-02T09:55:30.211Z,16
2017-07-02T09:56:38.289Z,12
2017-07-02T09:57:46.378Z,12
2017-07-02T09:58:54.466Z,12
2017-07-02T10:00:02.551Z,12
2017-07-02T10:01:10.639Z,12
2017-07-02T10:02:18.727Z,12
2017-07-02T10:03:26.814Z,12
2017-07-02T10:04:34.903Z,8
2017-07-02T10:05:43.021Z,12
2017-07-02T10:06:51.101Z,12
2017-07-02T10:07:59.165Z,12
2017-07-02T10:09:07.250Z,16
2017-07-02T10:10:15.362Z,12
2017-07-02T10:11:23.428Z,12
2017-07-02T10:12:31.512Z,12
2017-07-02T10:13:39.600Z,12
2017-07-02T10:14:47.691Z,12
2017-07-02T10:15:55.776Z,12
2017-07-02T10:17:03.888Z,8
2017-07-02T10:18:11.950Z,8
2017-07-02T10:19:20.039Z,12
2017-07-02T10:20:28.126Z,12
2017-07-02T10:21:36.213Z,8
2017-07-02T10:22:44.302Z,8
2017-07-02T10:23:52.389Z,8
2017-07-02T10:25:00.475Z,8
2017-07-02T10:26:08.562Z,4
2017-07-02T10:27:16.648Z,8
2017-07-02T10:28:24.736Z,8
2017-07-02T10:29:32.847Z,8
2017-07-02T10:30:40.968Z,8
2017-07-02T10:31:48.998Z,8
2017-07-02T10:32:57.109Z,8
2017-07-02T10:34:05.174Z,12
2017-07-02T10:35:13.259Z,20
2017-07-02T10:36:21.347Z,20
2017-07-02T10:37:29.433Z,24
2017-07-02T10:38:37.521Z,20
2017-07-02T10:39:45.608Z,20
2017-07-02T10:40:53.696Z,20
2017-07-02T10:42:01.784Z,20
2017-07-02T10:43:09.871Z,16
2017-07-02T10:44:17.983Z,16
2017-07-02T10:45:26.102Z,16
2017-07-02T10:46:34.133Z,16
2017-07-02T10:47:42.219Z,12
2017-07-02T10:48:50.355Z,12
2017-07-02T10:49:58.393Z,12
2017-07-02T10:51:06.483Z,8
2017-07-02T10:52:14.569Z,8
2017-07-02T10:53:22.656Z,8
2017-07-02T10:54:30.745Z,8
2017-07-02T10:55:38.830Z,8
2017-07-02T10:56:46.919Z,8
2017-07-02T10:57:55.006Z,4
2017-07-02T10:59:03.141Z,8
2017-07-02T11:00:11.181Z,8
2017-07-02T11:01:19.269Z,8
2017-07-02T11:02:27.356Z,12
2017-07-02T11:03:35.549Z,12
2017-07-02T11:04:43.532Z,12
2017-07-02T11:05:51.617Z,12
2017-07-02T11:06:59.706Z,12
2017-07-02T11:08:07.791Z,8
2017-07-02T11:09:15.888Z,8
2017-07-02T11:10:24.094Z,8
2017-07-02T11:11:32.087Z,12
2017-07-02T11:12:40.149Z,8
2017-07-02T11:13:48.237Z,12
2017-07-02T11:14:56.322Z,12
2017-07-02T11:16:04.409Z,12
2017-07-02T11:17:12.496Z,8
2017-07-02T11:18:20.584Z,12
2017-07-02T11:19:28.672Z,12
2017-07-02T11:20:36.766Z,16
2017-07-02T11:21:44.859Z,16
2017-07-02T11:22:52.941Z,16
2017-07-02T11:24:01.028Z,16
2017-07-02T11:25:09.118Z,16
2017-07-02T11:26:17.205Z,16
2017-07-02T11:27:25.291Z,16
2017-07-02T11:28:33.380Z,12
2017-07-02T11:29:41.467Z,16
2017-07-02T11:30:49.555Z,12
2017-07-02T11:31:57.640Z,16
2017-07-02T11:33:05.727Z,16
2017-07-02T11:34:13.816Z,20
2017-07-02T11:35:21.927Z,20
2017-07-02T11:36:29.990Z,24
2017-07-02T11:37:38.078Z,20
2017-07-02T11:38:46.165Z,20
2017-07-02T11:39:54.271Z,20
2017-07-02T11:41:02.338Z,20
2017-07-02T11:42:10.426Z,20
2017-07-02T11:43:18.512Z,16
2017-07-02T11:44:26.601Z,12
2017-07-02T11:45:34.712Z,12
2017-07-02T11:46:42.776Z,8
2017-07-02T11:47:51.110Z,8
2017-07-02T11:48:59.006Z,12
2017-07-02T11:50:07.166Z,8
2017-07-02T11:51:15.310Z,12
2017-07-02T11:52:23.218Z,8
2017-07-02T11:53:31.303Z,8
2017-07-02T11:54:39.393Z,12
2017-07-02T11:55:47.480Z,12
2017-07-02T11:56:55.569Z,16
2017-07-02T11:58:03.660Z,16
2017-07-02T11:59:11.748Z,16
2017-07-02T12:00:19.836Z,16
2017-07-02T12:01:27.920Z,16
2017-07-02T12:02:36.009Z,16
2017-07-02T12:03:44.096Z,16
2017-07-02T12:04:52.210Z,16
2017-07-02T12:06:00.390Z,16
2017-07-02T12:07:08.365Z,16
2017-07-02T12:08:16.461Z,20
2017-07-02T12:09:24.542Z,16
2017-07-02T12:10:32.627Z,16
2017-07-02T12:11:40.717Z,12
2017-07-02T12:12:48.803Z,8
2017-07-02T12:13:56.890Z,12
2017-07-02T12:15:04.979Z,8
2017-07-02T12:16:13.086Z,8
2017-07-02T12:17:21.155Z,8
2017-07-02T12:18:29.238Z,8
2017-07-02T12:19:37.353Z,8
2017-07-02T12:20:45.422Z,8
2017-07-02T12:21:53.512Z,8
2017-07-02T12:23:01.597Z,8
2017-07-02T12:24:09.687Z,8
2017-07-02T12:25:17.771Z,8
2017-07-02T12:26:25.860Z,8
2017-07-02T12:27:33.947Z,12
2017-07-02T12:28:42.034Z,12
2017-07-02T12:29:50.122Z,16
2017-07-02T12:30:58.233Z,16
2017-07-02T12:32:06.298Z,16
2017-07-02T12:33:14.386Z,16
2017-07-02T12:34:22.474Z,16
2017-07-02T12:35:30.559Z,16
2017-07-02T12:36:38.649Z,16
2017-07-02T12:37:46.735Z,12
2017-07-02T12:38:54.833Z,12
2017-07-02T12:40:02.910Z,12
2017-07-02T12:41:11.022Z,8
2017-07-02T12:42:19.085Z,8
2017-07-02T12:43:27.172Z,8
2017-07-02T12:44:35.260Z,8
2017-07-02T12:45:43.349Z,4
2017-07-02T12:46:51.434Z,4
2017-07-02T12:47:59.525Z,4
2017-07-02T12:49:07.610Z,4
2017-07-02T12:50:15.697Z,4
2017-07-02T12:51:23.788Z,0
2017-07-02T12:52:31.879Z,4
2017-07-02T12:53:39.962Z,4
2017-07-02T12:54:48.048Z,4
2017-07-02T12:55:56.137Z,4
2017-07-02T12:57:04.224Z,0
2017-07-02T12:58:12.310Z,0
2017-07-02T12:59:20.398Z,4
2017-07-02T13:00:28.485Z,0
2017-07-02T13:01:36.574Z,0
2017-07-02T13:02:44.661Z,0
2017-07-02T13:03:52.748Z,0
2017-07-02T13:05:00.861Z,4
2017-07-02T13:06:08.979Z,4
2017-07-02T13:07:17.011Z,4
2017-07-02T13:08:25.125Z,4
2017-07-02T13:09:33.187Z,4
2017-07-02T13:10:41.274Z,8
2017-07-02T13:11:49.361Z,4
2017-07-02T13:12:57.451Z,4
2017-07-02T13:14:05.535Z,4
2017-07-02T13:15:13.624Z,8
2017-07-02T13:16:21.710Z,4
2017-07-02T13:17:29.800Z,8
2017-07-02T13:18:37.884Z,4
2017-07-02T13:19:45.975Z,8
2017-07-02T13:20:54.067Z,8
2017-07-02T13:22:02.152Z,8
2017-07-02T13:23:10.242Z,12
2017-07-02T13:24:18.328Z,12
2017-07-02T13:25:26.417Z,12
2017-07-02T13:26:34.505Z,12
2017-07-02T13:27:42.628Z,12
2017-07-02T13:28:50.679Z,12
2017-07-02T13:29:58.767Z,16
2017-07-02T13:31:06.854Z,12
2017-07-02T13:32:14.965Z,12
2017-07-02T13:33:23.028Z,16
2017-07-02T13:34:31.117Z,12
2017-07-02T13:35:39.226Z,12
2017-07-02T13:36:47.291Z,12
2017-07-02T13:37:55.378Z,16
2017-07-02T13:39:03.466Z,16
2017-07-02T13:40:11.554Z,16
2017-07-02T13:41:19.641Z,20
2017-07-02T13:42:27.729Z,24
2017-07-02T13:43:35.815Z,20
2017-07-02T13:44:43.907Z,24
2017-07-02T13:45:51.989Z,24
2017-07-02T13:47:00.081Z,32
2017-07-02T13:48:08.166Z,32
2017-07-02T13:49:16.252Z,28
2017-07-02T13:50:24.338Z,28
2017-07-02T13:51:32.428Z,28
2017-07-02T13:52:40.517Z,28
2017-07-02T13:53:48.606Z,28
2017-07-02T13:54:56.692Z,28
2017-07-02T13:56:04.780Z,24
2017-07-02T13:57:12.876Z,28
2017-07-02T13:58:20.956Z,24
2017-07-02T13:59:29.041Z,24
2017-07-02T14:00:37.173Z,20
2017-07-02T14:01:45.217Z,16
2017-07-02T14:02:53.303Z,12
2017-07-02T14:04:01.392Z,8
2017-07-02T14:05:09.479Z,12
2017-07-02T14:06:17.568Z,12
2017-07-02T14:07:25.656Z,12
2017-07-02T14:08:33.741Z,16
2017-07-02T14:09:41.829Z,16
2017-07-02T14:10:49.917Z,16
2017-07-02T14:11:58.005Z,16
2017-07-02T14:13:06.091Z,16
2017-07-02T14:14:14.178Z,16
2017-07-02T14:15:22.267Z,12
2017-07-02T14:16:30.356Z,12
2017-07-02T14:17:38.450Z,8
2017-07-02T14:18:46.529Z,8
2017-07-02T14:19:54.617Z,12
2017-07-02T14:21:02.704Z,12
2017-07-02T14:22:10.799Z,12
2017-07-02T14:23:18.890Z,12
2017-07-02T14:24:26.999Z,8
2017-07-02T14:25:35.060Z,12
2017-07-02T14:26:43.146Z,12
2017-07-02T14:27:51.235Z,12
2017-07-02T14:28:59.324Z,12
2017-07-02T14:30:07.411Z,8
2017-07-02T14:31:15.497Z,8
2017-07-02T14:32:23.586Z,8
2017-07-02T14:33:31.674Z,4
2017-07-02T14:34:39.762Z,4
2017-07-02T14:35:47.927Z,4
2017-07-02T14:36:55.937Z,4
2017-07-02T14:38:04.025Z,4
2017-07-02T14:39:12.234Z,4
2017-07-02T14:40:20.221Z,4
2017-07-02T14:41:28.284Z,4
2017-07-02T14:42:36.372Z,8
2017-07-02T14:43:44.460Z,8
2017-07-02T14:44:52.548Z,12
2017-07-02T14:46:00.633Z,12
2017-07-02T14:47:08.724Z,12
2017-07-02T14:48:16.815Z,8
2017-07-02T14:49:24.897Z,8
2017-07-02T14:50:32.985Z,12
2017-07-02T14:51:41.070Z,8
2017-07-02T14:52:49.232Z,8
2017-07-02T14:53:57.246Z,8
2017-07-02T14:55:05.339Z,8
2017-07-02T14:56:13.433Z,8
2017-07-02T14:57:21.519Z,12
2017-07-02T14:58:29.606Z,12
2017-07-02T14:59:37.693Z,8
2017-07-02T15:00:45.782Z,8
2017-07-02T15:01:53.894Z,8
2017-07-02T15:03:02.524Z,8
2017-07-02T15:04:10.048Z,8
2017-07-02T15:05:18.134Z,4
2017-07-02T15:06:26.220Z,4
2017-07-02T15:07:34.307Z,4
2017-07-02T15:08:42.396Z,4
2017-07-02T15:09:50.516Z,8
2017-07-02T15:10:58.572Z,4
2017-07-02T15:12:06.658Z,8
2017-07-02T15:13:14.747Z,4
2017-07-02T15:14:22.831Z,4
2017-07-02T15:15:30.929Z,4
2017-07-02T15:16:39.008Z,4
2017-07-02T15:17:47.101Z,4
2017-07-02T15:18:55.182Z,4
2017-07-02T15:20:03.269Z,4
2017-07-02T15:21:11.357Z,4
2017-07-02T15:22:19.442Z,4
2017-07-02T15:23:27.532Z,4
2017-07-02T15:24:35.618Z,8
2017-07-02T15:25:43.703Z,8
2017-07-02T15:26:51.804Z,4
2017-07-02T15:27:59.885Z,4
2017-07-02T15:29:07.975Z,8
2017-07-02T15:30:16.077Z,4
2017-07-02T15:31:24.149Z,4
2017-07-02T15:32:32.237Z,4
2017-07-02T15:33:40.326Z,8
2017-07-02T15:34:48.409Z,4
2017-07-02T15:35:56.495Z,4
2017-07-02T15:37:04.583Z,8
2017-07-02T15:38:12.671Z,8
2017-07-02T15:39:20.758Z,8
2017-07-02T15:40:28.844Z,8
2017-07-02T15:41:36.933Z,8
2017-07-02T15:42:45.019Z,8
2017-07-02T15:43:53.169Z,8
2017-07-02T15:45:01.229Z,12
2017-07-02T15:46:09.278Z,8
2017-07-02T15:47:17.368Z,8
2017-07-02T15:48:25.452Z,8
2017-07-02T15:49:33.541Z,4
2017-07-02T15:50:41.628Z,8
2017-07-02T15:51:49.717Z,4
2017-07-02T15:52:57.802Z,4
2017-07-02T15:54:05.886Z,8
2017-07-02T15:55:13.998Z,8
2017-07-02T15:56:22.060Z,8
2017-07-02T15:57:30.147Z,8
2017-07-02T15:58:38.235Z,8
2017-07-02T15:59:46.325Z,4
2017-07-02T16:00:54.486Z,4
2017-07-02T16:02:02.501Z,8
2017-07-02T16:03:10.589Z,4
2017-07-02T16:04:18.673Z,4
2017-07-02T16:05:26.765Z,4
2017-07-02T16:06:34.852Z,4
2017-07-02T16:07:42.941Z,0
2017-07-02T16:08:51.030Z,4
2017-07-02T16:09:59.141Z,4
2017-07-02T16:11:07.205Z,0
2017-07-02T16:12:15.290Z,0
2017-07-02T16:13:23.375Z,0
2017-07-02T16:14:31.462Z,0
2017-07-02T16:15:39.546Z,0
2017-07-02T16:16:47.634Z,4
2017-07-02T16:17:55.824Z,4
2017-07-02T16:19:03.810Z,0
2017-07-02T16:20:11.906Z,0
2017-07-02T16:21:19.983Z,0
2017-07-02T16:22:28.069Z,0
2017-07-02T16:23:36.159Z,0
2017-07-02T16:24:44.244Z,4
2017-07-02T16:25:52.330Z,4
2017-07-02T16:27:00.418Z,4
2017-07-02T16:28:08.505Z,0
2017-07-02T16:29:16.591Z,4
2017-07-02T16:30:24.682Z,4
2017-07-02T16:31:32.769Z,0
2017-07-02T16:32:40.855Z,4
2017-07-02T16:33:48.966Z,0
2017-07-02T16:34:57.098Z,4
2017-07-02T16:36:05.117Z,4
2017-07-02T16:37:13.213Z,0
2017-07-02T16:38:21.291Z,4
2017-07-02T16:39:29.378Z,4
2017-07-02T16:40:37.468Z,4
2017-07-02T16:41:45.553Z,8
2017-07-02T16:42:53.760Z,4
2017-07-02T16:44:01.726Z,4
2017-07-02T16:45:09.813Z,4
2017-07-02T16:46:17.900Z,4
2017-07-02T16:47:25.992Z,0
2017-07-02T16:48:34.083Z,4
2017-07-02T16:49:42.169Z,0
2017-07-02T16:50:50.253Z,0
2017-07-02T16:51:58.418Z,0
2017-07-02T16:53:06.425Z,0
2017-07-02T16:54:14.514Z,0
2017-07-02T16:55:22.602Z,4
2017-07-02T16:56:30.690Z,4
2017-07-02T16:57:38.776Z,4
2017-07-02T16:58:46.891Z,0
2017-07-02T16:59:54.955Z,4
2017-07-02T17:01:03.039Z,0
2017-07-02T17:02:11.126Z,0
2017-07-02T17:03:19.212Z,0
2017-07-02T17:04:27.300Z,0
2017-07-02T17:05:35.387Z,4
2017-07-02T17:06:43.475Z,0
2017-07-02T17:07:51.564Z,0
2017-07-02T17:08:59.718Z,0
2017-07-02T17:10:07.751Z,0
2017-07-02T17:11:15.846Z,4
2017-07-02T17:12:23.927Z,0
2017-07-02T17:13:32.013Z,0
2017-07-02T17:14:40.101Z,0
2017-07-02T17:15:48.186Z,0
2017-07-02T17:16:56.275Z,0
2017-07-02T17:18:04.361Z,4
2017-07-02T17:19:12.447Z,4
2017-07-02T17:20:20.578Z,4
2017-07-02T17:21:28.621Z,4
2017-07-02T17:22:36.711Z,0
2017-07-02T17:23:44.797Z,0
2017-07-02T17:24:52.884Z,0
2017-07-02T17:26:01.034Z,0
2017-07-02T17:27:09.056Z,0
2017-07-02T17:28:17.144Z,0
2017-07-02T17:29:25.229Z,0
2017-07-02T17:30:33.319Z,0
2017-07-02T17:31:41.403Z,0
2017-07-02T17:32:49.492Z,0
2017-07-02T17:33:57.579Z,4
2017-07-02T17:35:05.667Z,4
2017-07-02T17:36:13.755Z,4
2017-07-02T17:37:21.847Z,0
2017-07-02T17:38:29.951Z,0
2017-07-02T17:39:38.015Z,0
2017-07-02T17:40:46.103Z,0
2017-07-02T17:41:54.213Z,0
2017-07-02T17:43:02.361Z,0
2017-07-02T17:44:10.366Z,0
2017-07-02T17:45:18.453Z,4
2017-07-02T17:46:26.539Z,0
2017-07-02T17:47:34.626Z,0
2017-07-02T17:48:42.713Z,0
2017-07-02T17:49:50.796Z,0
2017-07-02T17:50:58.896Z,0
2017-07-02T17:52:06.998Z,0
2017-07-02T17:53:15.060Z,0
2017-07-02T17:54:23.146Z,0
2017-07-02T17:55:31.234Z,4
2017-07-02T17:56:39.320Z,4
2017-07-02T17:57:47.406Z,4
2017-07-02T17:58:55.493Z,4
2017-07-02T18:00:03.606Z,4
2017-07-02T18:01:11.668Z,0
2017-07-02T18:02:19.756Z,0
2017-07-02T18:03:27.842Z,0
2017-07-02T18:04:35.956Z,0
2017-07-02T18:05:44.022Z,0
2017-07-02T18:06:52.105Z,0
2017-07-02T18:08:00.197Z,0
2017-07-02T18:09:08.277Z,0
2017-07-02T18:10:16.365Z,0
2017-07-02T18:11:24.451Z,0
2017-07-02T18:12:32.540Z,0
2017-07-02T18:13:40.628Z,0
2017-07-02T18:14:48.713Z,0
2017-07-02T18:15:56.801Z,0
2017-07-02T18:17:04.942Z,0
2017-07-02T18:18:12.974Z,4
2017-07-02T18:19:21.125Z,0
2017-07-02T18:20:29.150Z,0
2017-07-02T18:21:37.236Z,0
2017-07-02T18:22:45.324Z,0
2017-07-02T18:23:53.411Z,0
2017-07-02T18:25:01.496Z,4
2017-07-02T18:26:09.586Z,4
2017-07-02T18:27:17.670Z,0
2017-07-02T18:28:25.767Z,0
2017-07-02T18:29:33.852Z,0
2017-07-02T18:30:41.939Z,4
2017-07-02T18:31:50.050Z,4
2017-07-02T18:32:58.115Z,0
2017-07-02T18:34:06.204Z,0
2017-07-02T18:35:14.285Z,0
2017-07-02T18:36:22.378Z,0
2017-07-02T18:37:30.463Z,4
2017-07-02T18:38:38.550Z,4
2017-07-02T18:39:46.639Z,4
2017-07-02T18:40:54.725Z,0
2017-07-02T18:42:02.814Z,0
2017-07-02T18:43:10.908Z,0
2017-07-02T18:44:18.987Z,0
2017-07-02T18:45:27.081Z,0
2017-07-02T18:46:35.199Z,0
2017-07-02T18:47:43.255Z,0
2017-07-02T18:48:51.343Z,0
2017-07-02T18:49:59.430Z,0
2017-07-02T18:51:07.547Z,0
2017-07-02T18:52:15.603Z,0
2017-07-02T18:53:23.689Z,0
2017-07-02T18:54:31.777Z,0
2017-07-02T18:55:39.861Z,0
2017-07-02T18:56:47.955Z,0
2017-07-02T18:57:56.044Z,0
2017-07-02T18:59:04.129Z,0
2017-07-02T19:00:12.219Z,0
2017-07-02T19:01:20.301Z,0
2017-07-02T19:02:28.390Z,0
2017-07-02T19:03:36.475Z,0
2017-07-02T19:04:44.565Z,0
2017-07-02T19:05:52.652Z,0
2017-07-02T19:07:00.741Z,0
2017-07-02T19:08:08.835Z,0
2017-07-02T19:09:16.913Z,0
2017-07-02T19:10:25.023Z,0
2017-07-02T19:11:33.087Z,0
2017-07-02T19:12:41.177Z,0
2017-07-02T19:13:49.260Z,0
2017-07-02T19:14:57.349Z,0
2017-07-02T19:16:05.432Z,0
2017-07-02T19:17:13.519Z,0
2017-07-02T19:18:21.607Z,0
2017-07-02T19:19:29.693Z,0
2017-07-02T19:20:37.782Z,0
2017-07-02T19:21:45.866Z,0
2017-07-02T19:22:53.959Z,0
2017-07-02T19:24:02.040Z,0
2017-07-02T19:25:10.213Z,0
2017-07-02T19:26:18.217Z,0
2017-07-02T19:27:26.303Z,0
2017-07-02T19:28:34.392Z,0
2017-07-02T19:29:42.476Z,0
2017-07-02T19:30:50.561Z,0
2017-07-02T19:31:58.649Z,0
2017-07-02T19:33:06.736Z,0
2017-07-02T19:34:14.847Z,0
2017-07-02T19:35:22.918Z,0
2017-07-02T19:36:31.056Z,0
2017-07-02T19:37:39.083Z,0
2017-07-02T19:38:47.171Z,0
2017-07-02T19:39:55.264Z,0
2017-07-02T19:41:03.344Z,0
2017-07-02T19:42:11.486Z,0
2017-07-02T19:43:19.516Z,0
2017-07-02T19:44:27.603Z,0
2017-07-02T19:45:35.691Z,0
2017-07-02T19:46:43.778Z,0
2017-07-02T19:47:51.866Z,0
2017-07-02T19:48:59.954Z,0
2017-07-02T19:50:08.046Z,0
2017-07-02T19:51:16.149Z,0
2017-07-02T19:52:24.211Z,0
2017-07-02T19:53:32.297Z,0
2017-07-02T19:54:40.385Z,0
2017-07-02T19:55:48.473Z,0
2017-07-02T19:56:56.559Z,0
2017-07-02T19:58:04.648Z,0
2017-07-02T19:59:12.780Z,0
2017-07-02T20:00:20.819Z,0
2017-07-02T20:01:28.907Z,0
2017-07-02T20:02:37.049Z,0
2017-07-02T20:03:45.078Z,0
2017-07-02T20:04:53.167Z,0
2017-07-02T20:06:01.257Z,0
2017-07-02T20:07:09.342Z,0
2017-07-02T20:08:17.428Z,0
2017-07-02T20:09:25.515Z,0
2017-07-02T20:10:33.603Z,0
2017-07-02T20:11:41.692Z,0
2017-07-02T20:12:49.779Z,0
2017-07-02T20:13:57.869Z,0
2017-07-02T20:15:05.956Z,0
2017-07-02T20:16:14.041Z,0
2017-07-02T20:17:22.156Z,0
2017-07-02T20:18:30.217Z,0
2017-07-02T20:19:38.303Z,0
2017-07-02T20:20:46.389Z,0
2017-07-02T20:21:54.477Z,0
2017-07-02T20:23:02.563Z,0
2017-07-02T20:24:11.004Z,0
2017-07-02T20:25:18.737Z,0
2017-07-02T20:26:26.831Z,0
2017-07-02T20:27:34.912Z,0
2017-07-02T20:28:43.000Z,0
2017-07-02T20:29:51.083Z,0
2017-07-02T20:30:59.172Z,0
2017-07-02T20:32:07.258Z,0
2017-07-02T20:33:15.351Z,0
2017-07-02T20:34:23.440Z,0
2017-07-02T20:35:31.526Z,0
2017-07-02T20:36:39.614Z,0
2017-07-02T20:37:47.699Z,0
2017-07-02T20:38:55.785Z,0
2017-07-02T20:40:03.873Z,0
2017-07-02T20:41:11.958Z,0
2017-07-02T20:42:20.048Z,0
2017-07-02T20:43:28.132Z,0
2017-07-02T20:44:36.222Z,0
2017-07-02T20:45:44.307Z,0
2017-07-02T20:46:52.396Z,0
2017-07-02T20:48:00.480Z,0
2017-07-02T20:49:08.567Z,0
2017-07-02T20:50:16.697Z,0
2017-07-02T20:51:24.741Z,0
2017-07-02T20:52:32.829Z,0
2017-07-02T20:53:40.916Z,0
2017-07-02T20:54:49.029Z,0
2017-07-02T20:55:57.090Z,0
2017-07-02T20:57:05.175Z,0
2017-07-02T20:58:13.264Z,0
2017-07-02T20:59:21.348Z,0
2017-07-02T21:00:29.436Z,0
2017-07-02T21:01:37.526Z,0
2017-07-02T21:02:45.610Z,0
2017-07-02T21:03:53.698Z,0
2017-07-02T21:05:01.783Z,0
2017-07-02T21:06:09.899Z,0
2017-07-02T21:07:18.046Z,0
2017-07-02T21:08:26.045Z,0
2017-07-02T21:09:34.130Z,0
2017-07-02T21:10:42.220Z,0
2017-07-02T21:11:50.305Z,0
2017-07-02T21:12:58.393Z,0
2017-07-02T21:14:06.486Z,0
2017-07-02T21:15:14.573Z,0
2017-07-02T21:16:22.659Z,0
2017-07-02T21:17:30.747Z,0
2017-07-02T21:18:38.857Z,0
2017-07-02T21:19:46.918Z,0
2017-07-02T21:20:55.007Z,0
2017-07-02T21:22:03.117Z,0
2017-07-02T21:23:11.180Z,0
2017-07-02T21:24:19.350Z,0
2017-07-02T21:25:27.355Z,0
2017-07-02T21:26:35.440Z,0
2017-07-02T21:27:43.529Z,0
2017-07-02T21:28:51.615Z,0
2017-07-02T21:29:59.700Z,0
2017-07-02T21:31:07.787Z,0
2017-07-02T21:32:15.884Z,0
2017-07-02T21:33:23.994Z,0
2017-07-02T21:34:32.067Z,0
2017-07-02T21:35:40.141Z,0
2017-07-02T21:36:48.228Z,0
2017-07-02T21:37:56.317Z,0
2017-07-02T21:39:04.401Z,0
2017-07-02T21:40:12.489Z,0
2017-07-02T21:41:20.626Z,0
2017-07-02T21:42:28.663Z,0
2017-07-02T21:43:36.751Z,0
2017-07-02T21:44:44.894Z,0
2017-07-02T21:45:53.047Z,0
2017-07-02T21:47:01.015Z,0
2017-07-02T21:48:09.102Z,0
2017-07-02T21:49:17.197Z,0
2017-07-02T21:50:25.275Z,0
2017-07-02T21:51:33.365Z,0
2017-07-02T21:52:41.452Z,0
2017-07-02T21:53:49.534Z,0
2017-07-02T21:54:57.621Z,0
2017-07-02T21:56:05.709Z,0
2017-07-02T21:57:13.843Z,0
2017-07-02T21:58:21.975Z,0
2017-07-02T21:59:29.975Z,0
2017-07-02T22:00:38.072Z,0
2017-07-02T22:01:46.148Z,0
2017-07-02T22:02:54.234Z,0
2017-07-02T22:04:02.320Z,0
2017-07-02T22:05:10.406Z,0
2017-07-02T22:06:18.495Z,0
2017-07-02T22:07:26.583Z,0
2017-07-02T22:08:34.668Z,0
2017-07-02T22:09:42.756Z,0
2017-07-02T22:10:50.845Z,0
2017-07-02T22:11:58.936Z,0
2017-07-02T22:13:07.015Z,0
2017-07-02T22:14:15.126Z,0
2017-07-02T22:15:23.221Z,0
2017-07-02T22:16:31.276Z,0
2017-07-02T22:17:39.360Z,0
2017-07-02T22:18:47.454Z,0
2017-07-02T22:19:55.540Z,0
2017-07-02T22:21:03.629Z,0
2017-07-02T22:22:11.722Z,0
2017-07-02T22:23:19.808Z,0
2017-07-02T22:24:27.927Z,0
2017-07-02T22:25:35.983Z,0
2017-07-02T22:26:44.081Z,0
2017-07-02T22:27:52.159Z,0
2017-07-02T22:29:00.243Z,0
2017-07-02T22:30:08.328Z,0
2017-07-02T22:31:16.418Z,0
2017-07-02T22:32:24.555Z,0